sensor_id;sensor_type;location;lat;lon;timestamp;P1;durP1;ratioP1;P2;durP2;ratioP2
48963;SDS011;34776;48.180;16.420;2023-06-14T00:21:19;3.92;;;3.53;;
48963;SDS011;34776;48.180;16.420;2023-06-14T02:25:39;5.88;;;4.00;;
48963;SDS011;34776;48.180;16.420;2023-06-14T02:28:05;5.40;;;3.45;;
48963;SDS011;34776;48.180;16.420;2023-06-14T02:30:31;5.30;;;3.92;;
48963;SDS011;34776;48.180;16.420;2023-06-14T03:34:40;6.07;;;4.30;;
48963;SDS011;34776;48.180;16.420;2023-06-14T03:40:09;4.70;;;4.18;;
48963;SDS011;34776;48.180;16.420;2023-06-14T03:42:35;4.55;;;4.13;;
48963;SDS011;34776;48.180;16.420;2023-06-14T03:45:00;7.28;;;4.20;;
48963;SDS011;34776;48.180;16.420;2023-06-14T03:47:25;4.85;;;3.78;;
48963;SDS011;34776;48.180;16.420;2023-06-14T03:49:52;5.50;;;4.10;;
48963;SDS011;34776;48.180;16.420;2023-06-14T03:52:17;5.07;;;4.15;;
48963;SDS011;34776;48.180;16.420;2023-06-14T03:54:43;6.30;;;3.95;;
48963;SDS011;34776;48.180;16.420;2023-06-14T03:57:09;10.68;;;3.95;;
48963;SDS011;34776;48.180;16.420;2023-06-14T03:59:35;5.60;;;4.32;;
48963;SDS011;34776;48.180;16.420;2023-06-14T04:31:35;5.32;;;4.13;;
48963;SDS011;34776;48.180;16.420;2023-06-14T04:39:18;5.55;;;4.65;;
48963;SDS011;34776;48.180;16.420;2023-06-14T04:41:44;9.45;;;7.22;;
48963;SDS011;34776;48.180;16.420;2023-06-14T04:44:09;15.45;;;13.85;;
48963;SDS011;34776;48.180;16.420;2023-06-14T04:46:35;8.25;;;7.40;;
48963;SDS011;34776;48.180;16.420;2023-06-14T04:58:22;4.82;;;4.28;;
48963;SDS011;34776;48.180;16.420;2023-06-14T05:00:47;11.13;;;4.63;;
48963;SDS011;34776;48.180;16.420;2023-06-14T05:05:48;5.93;;;4.32;;
48963;SDS011;34776;48.180;16.420;2023-06-14T05:54:37;6.38;;;3.53;;
48963;SDS011;34776;48.180;16.420;2023-06-14T05:57:02;6.72;;;3.90;;
48963;SDS011;34776;48.180;16.420;2023-06-14T05:59:29;4.78;;;3.40;;
48963;SDS011;34776;48.180;16.420;2023-06-14T06:01:55;6.53;;;3.72;;
48963;SDS011;34776;48.180;16.420;2023-06-14T06:04:20;5.15;;;3.50;;
48963;SDS011;34776;48.180;16.420;2023-06-14T06:06:46;7.10;;;3.50;;
48963;SDS011;34776;48.180;16.420;2023-06-14T06:09:12;3.63;;;3.20;;
48963;SDS011;34776;48.180;16.420;2023-06-14T06:11:39;6.10;;;3.28;;
48963;SDS011;34776;48.180;16.420;2023-06-14T06:14:05;4.50;;;3.28;;
48963;SDS011;34776;48.180;16.420;2023-06-14T06:16:30;5.55;;;3.05;;
48963;SDS011;34776;48.180;16.420;2023-06-14T06:18:55;4.68;;;3.38;;
48963;SDS011;34776;48.180;16.420;2023-06-14T06:21:21;7.55;;;3.63;;
48963;SDS011;34776;48.180;16.420;2023-06-14T06:23:46;6.35;;;3.63;;
48963;SDS011;34776;48.180;16.420;2023-06-14T06:26:12;6.93;;;3.88;;
48963;SDS011;34776;48.180;16.420;2023-06-14T06:28:37;8.85;;;3.72;;
48963;SDS011;34776;48.180;16.420;2023-06-14T06:31:02;9.27;;;5.97;;
48963;SDS011;34776;48.180;16.420;2023-06-14T06:33:28;6.60;;;4.43;;
48963;SDS011;34776;48.180;16.420;2023-06-14T06:35:53;4.07;;;3.33;;
48963;SDS011;34776;48.180;16.420;2023-06-14T06:38:18;8.55;;;3.38;;
48963;SDS011;34776;48.180;16.420;2023-06-14T06:40:44;2.90;;;2.60;;
48963;SDS011;34776;48.180;16.420;2023-06-14T06:48:20;5.15;;;3.30;;
48963;SDS011;34776;48.180;16.420;2023-06-14T06:50:45;4.80;;;2.92;;
48963;SDS011;34776;48.180;16.420;2023-06-14T06:53:10;5.50;;;3.40;;
48963;SDS011;34776;48.180;16.420;2023-06-14T06:55:36;9.32;;;6.25;;
48963;SDS011;34776;48.180;16.420;2023-06-14T07:00:36;5.95;;;2.83;;
48963;SDS011;34776;48.180;16.420;2023-06-14T07:03:02;9.10;;;3.15;;
48963;SDS011;34776;48.180;16.420;2023-06-14T07:05:29;5.35;;;2.78;;
48963;SDS011;34776;48.180;16.420;2023-06-14T07:07:54;4.57;;;2.85;;
48963;SDS011;34776;48.180;16.420;2023-06-14T07:12:55;4.00;;;2.55;;
48963;SDS011;34776;48.180;16.420;2023-06-14T07:15:21;5.03;;;2.53;;
48963;SDS011;34776;48.180;16.420;2023-06-14T07:17:46;3.33;;;2.93;;
48963;SDS011;34776;48.180;16.420;2023-06-14T07:20:12;3.30;;;2.23;;
48963;SDS011;34776;48.180;16.420;2023-06-14T07:25:13;5.45;;;2.80;;
48963;SDS011;34776;48.180;16.420;2023-06-14T07:27:40;3.08;;;2.22;;
48963;SDS011;34776;48.180;16.420;2023-06-14T07:32:41;4.50;;;3.90;;
48963;SDS011;34776;48.180;16.420;2023-06-14T07:37:58;2.38;;;2.17;;
48963;SDS011;34776;48.180;16.420;2023-06-14T07:40:23;4.55;;;3.08;;
48963;SDS011;34776;48.180;16.420;2023-06-14T07:42:48;3.85;;;2.38;;
48963;SDS011;34776;48.180;16.420;2023-06-14T07:45:15;3.67;;;2.40;;
48963;SDS011;34776;48.180;16.420;2023-06-14T07:47:41;6.63;;;2.45;;
48963;SDS011;34776;48.180;16.420;2023-06-14T07:50:06;4.32;;;2.70;;
48963;SDS011;34776;48.180;16.420;2023-06-14T07:52:32;6.10;;;2.45;;
48963;SDS011;34776;48.180;16.420;2023-06-14T07:54:57;5.45;;;2.90;;
48963;SDS011;34776;48.180;16.420;2023-06-14T07:57:23;3.40;;;2.58;;
48963;SDS011;34776;48.180;16.420;2023-06-14T07:59:48;5.43;;;2.65;;
48963;SDS011;34776;48.180;16.420;2023-06-14T08:02:15;4.55;;;2.60;;
48963;SDS011;34776;48.180;16.420;2023-06-14T08:04:40;8.10;;;2.50;;
48963;SDS011;34776;48.180;16.420;2023-06-14T08:07:07;3.65;;;2.30;;
48963;SDS011;34776;48.180;16.420;2023-06-14T08:09:32;6.15;;;2.17;;
48963;SDS011;34776;48.180;16.420;2023-06-14T08:11:57;6.95;;;2.50;;
48963;SDS011;34776;48.180;16.420;2023-06-14T08:14:23;5.30;;;4.20;;
48963;SDS011;34776;48.180;16.420;2023-06-14T08:16:48;5.47;;;3.00;;
48963;SDS011;34776;48.180;16.420;2023-06-14T08:19:13;4.35;;;2.90;;
48963;SDS011;34776;48.180;16.420;2023-06-14T08:21:41;5.95;;;2.67;;
48963;SDS011;34776;48.180;16.420;2023-06-14T08:24:07;4.57;;;3.88;;
48963;SDS011;34776;48.180;16.420;2023-06-14T08:26:32;6.32;;;2.88;;
48963;SDS011;34776;48.180;16.420;2023-06-14T08:28:57;2.50;;;2.13;;
48963;SDS011;34776;48.180;16.420;2023-06-14T08:31:23;5.82;;;2.75;;
48963;SDS011;34776;48.180;16.420;2023-06-14T08:33:50;8.30;;;3.10;;
48963;SDS011;34776;48.180;16.420;2023-06-14T08:38:51;5.28;;;2.60;;
48963;SDS011;34776;48.180;16.420;2023-06-14T08:41:22;5.80;;;2.80;;
48963;SDS011;34776;48.180;16.420;2023-06-14T08:43:51;5.13;;;2.75;;
48963;SDS011;34776;48.180;16.420;2023-06-14T08:46:17;6.32;;;2.65;;
48963;SDS011;34776;48.180;16.420;2023-06-14T08:48:46;5.15;;;2.83;;
48963;SDS011;34776;48.180;16.420;2023-06-14T08:51:14;6.65;;;2.60;;
48963;SDS011;34776;48.180;16.420;2023-06-14T08:53:43;4.95;;;2.85;;
48963;SDS011;34776;48.180;16.420;2023-06-14T08:56:09;4.68;;;3.00;;
48963;SDS011;34776;48.180;16.420;2023-06-14T08:58:42;3.72;;;3.03;;
48963;SDS011;34776;48.180;16.420;2023-06-14T09:01:09;4.97;;;2.38;;
48963;SDS011;34776;48.180;16.420;2023-06-14T09:03:39;3.47;;;2.65;;
48963;SDS011;34776;48.180;16.420;2023-06-14T09:06:05;3.75;;;2.55;;
48963;SDS011;34776;48.180;16.420;2023-06-14T09:08:33;3.17;;;2.70;;
48963;SDS011;34776;48.180;16.420;2023-06-14T09:11:00;3.38;;;2.78;;
48963;SDS011;34776;48.180;16.420;2023-06-14T09:13:26;4.82;;;2.40;;
48963;SDS011;34776;48.180;16.420;2023-06-14T09:15:52;5.90;;;2.40;;
48963;SDS011;34776;48.180;16.420;2023-06-14T09:18:18;6.53;;;2.70;;
48963;SDS011;34776;48.180;16.420;2023-06-14T09:20:45;7.90;;;2.63;;
48963;SDS011;34776;48.180;16.420;2023-06-14T09:23:12;3.42;;;2.40;;
48963;SDS011;34776;48.180;16.420;2023-06-14T09:25:41;3.25;;;2.20;;
48963;SDS011;34776;48.180;16.420;2023-06-14T09:28:08;3.78;;;2.38;;
48963;SDS011;34776;48.180;16.420;2023-06-14T09:30:35;2.97;;;2.53;;
48963;SDS011;34776;48.180;16.420;2023-06-14T09:33:01;4.97;;;2.95;;
48963;SDS011;34776;48.180;16.420;2023-06-14T09:35:27;4.95;;;3.20;;
48963;SDS011;34776;48.180;16.420;2023-06-14T09:37:54;6.50;;;3.00;;
48963;SDS011;34776;48.180;16.420;2023-06-14T09:40:20;4.10;;;2.58;;
48963;SDS011;34776;48.180;16.420;2023-06-14T09:42:46;3.50;;;2.70;;
48963;SDS011;34776;48.180;16.420;2023-06-14T09:45:12;4.55;;;2.40;;
48963;SDS011;34776;48.180;16.420;2023-06-14T09:47:39;4.68;;;3.03;;
48963;SDS011;34776;48.180;16.420;2023-06-14T09:50:05;3.50;;;2.58;;
48963;SDS011;34776;48.180;16.420;2023-06-14T09:52:31;2.67;;;2.38;;
48963;SDS011;34776;48.180;16.420;2023-06-14T09:54:57;3.17;;;2.25;;
48963;SDS011;34776;48.180;16.420;2023-06-14T09:57:24;3.72;;;2.72;;
48963;SDS011;34776;48.180;16.420;2023-06-14T09:59:53;5.18;;;3.00;;
48963;SDS011;34776;48.180;16.420;2023-06-14T10:02:29;2.95;;;2.60;;
48963;SDS011;34776;48.180;16.420;2023-06-14T10:05:03;6.10;;;2.88;;
48963;SDS011;34776;48.180;16.420;2023-06-14T10:07:53;3.80;;;2.60;;
48963;SDS011;34776;48.180;16.420;2023-06-14T10:10:24;3.72;;;2.50;;
48963;SDS011;34776;48.180;16.420;2023-06-14T10:12:50;6.00;;;3.00;;
48963;SDS011;34776;48.180;16.420;2023-06-14T10:15:20;4.30;;;2.60;;
48963;SDS011;34776;48.180;16.420;2023-06-14T10:17:56;4.18;;;2.83;;
48963;SDS011;34776;48.180;16.420;2023-06-14T10:20:33;5.68;;;2.58;;
48963;SDS011;34776;48.180;16.420;2023-06-14T10:23:21;4.40;;;2.65;;
48963;SDS011;34776;48.180;16.420;2023-06-14T10:25:49;3.50;;;2.63;;
48963;SDS011;34776;48.180;16.420;2023-06-14T10:28:20;3.25;;;2.13;;
48963;SDS011;34776;48.180;16.420;2023-06-14T10:31:11;3.67;;;2.72;;
48963;SDS011;34776;48.180;16.420;2023-06-14T10:38:57;4.57;;;2.38;;
48963;SDS011;34776;48.180;16.420;2023-06-14T10:41:25;5.43;;;2.63;;
48963;SDS011;34776;48.180;16.420;2023-06-14T10:44:00;4.25;;;2.53;;
48963;SDS011;34776;48.180;16.420;2023-06-14T10:46:35;6.57;;;3.00;;
48963;SDS011;34776;48.180;16.420;2023-06-14T10:49:00;6.45;;;4.03;;
48963;SDS011;34776;48.180;16.420;2023-06-14T10:51:29;4.40;;;2.80;;
48963;SDS011;34776;48.180;16.420;2023-06-14T10:53:55;4.60;;;3.25;;
48963;SDS011;34776;48.180;16.420;2023-06-14T10:56:26;7.70;;;2.50;;
48963;SDS011;34776;48.180;16.420;2023-06-14T11:04:58;5.45;;;2.60;;
48963;SDS011;34776;48.180;16.420;2023-06-14T11:12:47;8.50;;;2.65;;
48963;SDS011;34776;48.180;16.420;2023-06-14T11:15:13;7.07;;;2.63;;
48963;SDS011;34776;48.180;16.420;2023-06-14T11:17:39;4.07;;;2.60;;
48963;SDS011;34776;48.180;16.420;2023-06-14T11:20:10;4.63;;;2.45;;
48963;SDS011;34776;48.180;16.420;2023-06-14T11:22:43;3.55;;;2.50;;
48963;SDS011;34776;48.180;16.420;2023-06-14T11:25:09;4.13;;;3.00;;
48963;SDS011;34776;48.180;16.420;2023-06-14T11:27:36;3.13;;;2.72;;
48963;SDS011;34776;48.180;16.420;2023-06-14T11:30:02;6.57;;;5.53;;
48963;SDS011;34776;48.180;16.420;2023-06-14T11:32:28;3.33;;;3.03;;
48963;SDS011;34776;48.180;16.420;2023-06-14T11:34:53;5.00;;;4.38;;
48963;SDS011;34776;48.180;16.420;2023-06-14T11:37:18;4.75;;;3.13;;
48963;SDS011;34776;48.180;16.420;2023-06-14T11:39:44;4.03;;;3.10;;
48963;SDS011;34776;48.180;16.420;2023-06-14T11:42:14;5.10;;;2.95;;
48963;SDS011;34776;48.180;16.420;2023-06-14T11:44:40;3.58;;;2.55;;
48963;SDS011;34776;48.180;16.420;2023-06-14T11:47:06;2.63;;;2.42;;
48963;SDS011;34776;48.180;16.420;2023-06-14T11:49:35;9.20;;;2.88;;
48963;SDS011;34776;48.180;16.420;2023-06-14T11:52:01;4.05;;;2.67;;
48963;SDS011;34776;48.180;16.420;2023-06-14T11:54:26;4.00;;;2.50;;
48963;SDS011;34776;48.180;16.420;2023-06-14T11:56:52;8.70;;;3.33;;
48963;SDS011;34776;48.180;16.420;2023-06-14T11:59:18;8.43;;;3.30;;
48963;SDS011;34776;48.180;16.420;2023-06-14T12:01:43;5.25;;;2.88;;
48963;SDS011;34776;48.180;16.420;2023-06-14T12:04:08;4.50;;;2.88;;
48963;SDS011;34776;48.180;16.420;2023-06-14T12:06:34;3.78;;;2.90;;
48963;SDS011;34776;48.180;16.420;2023-06-14T12:09:04;4.82;;;3.03;;
48963;SDS011;34776;48.180;16.420;2023-06-14T12:11:34;3.67;;;2.78;;
48963;SDS011;34776;48.180;16.420;2023-06-14T12:14:02;6.47;;;3.90;;
48963;SDS011;34776;48.180;16.420;2023-06-14T12:16:33;7.55;;;3.00;;
48963;SDS011;34776;48.180;16.420;2023-06-14T12:19:12;4.35;;;2.78;;
48963;SDS011;34776;48.180;16.420;2023-06-14T12:21:38;5.63;;;2.67;;
48963;SDS011;34776;48.180;16.420;2023-06-14T12:24:05;5.47;;;2.70;;
48963;SDS011;34776;48.180;16.420;2023-06-14T12:26:31;7.95;;;2.72;;
48963;SDS011;34776;48.180;16.420;2023-06-14T12:28:57;7.47;;;2.70;;
48963;SDS011;34776;48.180;16.420;2023-06-14T12:31:22;3.80;;;2.50;;
48963;SDS011;34776;48.180;16.420;2023-06-14T12:33:49;2.85;;;2.55;;
48963;SDS011;34776;48.180;16.420;2023-06-14T12:36:15;7.65;;;2.67;;
48963;SDS011;34776;48.180;16.420;2023-06-14T12:38:41;4.65;;;2.42;;
48963;SDS011;34776;48.180;16.420;2023-06-14T12:41:07;5.72;;;2.50;;
48963;SDS011;34776;48.180;16.420;2023-06-14T12:43:33;5.55;;;2.63;;
48963;SDS011;34776;48.180;16.420;2023-06-14T12:45:59;5.07;;;2.83;;
48963;SDS011;34776;48.180;16.420;2023-06-14T12:48:25;5.80;;;2.70;;
48963;SDS011;34776;48.180;16.420;2023-06-14T12:50:52;3.78;;;2.50;;
48963;SDS011;34776;48.180;16.420;2023-06-14T12:53:18;4.22;;;2.88;;
48963;SDS011;34776;48.180;16.420;2023-06-14T12:55:43;4.45;;;2.65;;
48963;SDS011;34776;48.180;16.420;2023-06-14T12:58:09;3.03;;;2.33;;
48963;SDS011;34776;48.180;16.420;2023-06-14T13:00:37;4.47;;;2.50;;
48963;SDS011;34776;48.180;16.420;2023-06-14T13:03:02;4.55;;;2.50;;
48963;SDS011;34776;48.180;16.420;2023-06-14T13:05:28;3.70;;;2.45;;
48963;SDS011;34776;48.180;16.420;2023-06-14T13:07:53;4.55;;;2.53;;
48963;SDS011;34776;48.180;16.420;2023-06-14T13:10:18;4.18;;;2.20;;
48963;SDS011;34776;48.180;16.420;2023-06-14T13:12:44;4.15;;;2.53;;
48963;SDS011;34776;48.180;16.420;2023-06-14T13:15:10;3.28;;;2.58;;
48963;SDS011;34776;48.180;16.420;2023-06-14T13:17:35;3.28;;;2.65;;
48963;SDS011;34776;48.180;16.420;2023-06-14T13:20:05;5.38;;;2.50;;
48963;SDS011;34776;48.180;16.420;2023-06-14T13:22:32;7.60;;;2.58;;
48963;SDS011;34776;48.180;16.420;2023-06-14T13:24:57;3.35;;;2.83;;
48963;SDS011;34776;48.180;16.420;2023-06-14T13:27:23;3.80;;;2.70;;
48963;SDS011;34776;48.180;16.420;2023-06-14T13:29:49;4.20;;;2.65;;
48963;SDS011;34776;48.180;16.420;2023-06-14T13:32:14;4.85;;;2.58;;
48963;SDS011;34776;48.180;16.420;2023-06-14T13:34:40;8.25;;;2.92;;
48963;SDS011;34776;48.180;16.420;2023-06-14T13:37:05;5.03;;;2.90;;
48963;SDS011;34776;48.180;16.420;2023-06-14T13:39:31;4.90;;;2.90;;
48963;SDS011;34776;48.180;16.420;2023-06-14T13:41:56;5.47;;;2.60;;
48963;SDS011;34776;48.180;16.420;2023-06-14T13:44:21;6.65;;;2.85;;
48963;SDS011;34776;48.180;16.420;2023-06-14T13:46:47;5.75;;;2.80;;
48963;SDS011;34776;48.180;16.420;2023-06-14T13:49:12;5.13;;;3.10;;
48963;SDS011;34776;48.180;16.420;2023-06-14T13:51:37;6.45;;;2.72;;
48963;SDS011;34776;48.180;16.420;2023-06-14T13:54:03;3.90;;;2.35;;
48963;SDS011;34776;48.180;16.420;2023-06-14T13:56:29;5.10;;;3.08;;
48963;SDS011;34776;48.180;16.420;2023-06-14T13:58:55;9.68;;;2.83;;
48963;SDS011;34776;48.180;16.420;2023-06-14T14:01:21;2.67;;;2.45;;
48963;SDS011;34776;48.180;16.420;2023-06-14T14:03:47;7.15;;;2.72;;
48963;SDS011;34776;48.180;16.420;2023-06-14T14:06:14;3.63;;;2.30;;
48963;SDS011;34776;48.180;16.420;2023-06-14T14:08:40;2.50;;;2.30;;
48963;SDS011;34776;48.180;16.420;2023-06-14T14:11:06;4.30;;;2.30;;
48963;SDS011;34776;48.180;16.420;2023-06-14T14:13:32;4.43;;;2.40;;
48963;SDS011;34776;48.180;16.420;2023-06-14T14:15:58;3.22;;;2.15;;
48963;SDS011;34776;48.180;16.420;2023-06-14T14:18:24;4.72;;;2.50;;
48963;SDS011;34776;48.180;16.420;2023-06-14T14:20:49;5.28;;;2.50;;
48963;SDS011;34776;48.180;16.420;2023-06-14T14:23:15;4.63;;;2.67;;
48963;SDS011;34776;48.180;16.420;2023-06-14T14:25:40;3.58;;;2.60;;
48963;SDS011;34776;48.180;16.420;2023-06-14T14:28:05;4.53;;;3.10;;
48963;SDS011;34776;48.180;16.420;2023-06-14T14:30:31;5.30;;;2.65;;
48963;SDS011;34776;48.180;16.420;2023-06-14T14:32:56;5.40;;;2.72;;
48963;SDS011;34776;48.180;16.420;2023-06-14T14:35:22;3.58;;;2.60;;
48963;SDS011;34776;48.180;16.420;2023-06-14T14:37:49;7.72;;;2.80;;
48963;SDS011;34776;48.180;16.420;2023-06-14T14:40:14;3.90;;;2.40;;
48963;SDS011;34776;48.180;16.420;2023-06-14T14:42:40;3.10;;;2.45;;
48963;SDS011;34776;48.180;16.420;2023-06-14T14:45:05;14.98;;;2.78;;
48963;SDS011;34776;48.180;16.420;2023-06-14T14:47:31;4.25;;;2.80;;
48963;SDS011;34776;48.180;16.420;2023-06-14T14:49:56;4.45;;;2.60;;
48963;SDS011;34776;48.180;16.420;2023-06-14T14:52:22;4.55;;;2.60;;
48963;SDS011;34776;48.180;16.420;2023-06-14T14:54:47;5.15;;;2.75;;
48963;SDS011;34776;48.180;16.420;2023-06-14T14:57:12;3.22;;;2.70;;
48963;SDS011;34776;48.180;16.420;2023-06-14T14:59:38;5.82;;;2.75;;
48963;SDS011;34776;48.180;16.420;2023-06-14T15:02:03;4.70;;;2.85;;
48963;SDS011;34776;48.180;16.420;2023-06-14T15:04:28;4.00;;;3.00;;
48963;SDS011;34776;48.180;16.420;2023-06-14T15:06:54;3.55;;;2.85;;
48963;SDS011;34776;48.180;16.420;2023-06-14T15:09:19;3.70;;;2.70;;
48963;SDS011;34776;48.180;16.420;2023-06-14T15:11:45;4.13;;;3.30;;
48963;SDS011;34776;48.180;16.420;2023-06-14T15:14:10;3.63;;;3.15;;
48963;SDS011;34776;48.180;16.420;2023-06-14T15:16:35;5.47;;;2.60;;
48963;SDS011;34776;48.180;16.420;2023-06-14T15:19:01;3.15;;;2.67;;
48963;SDS011;34776;48.180;16.420;2023-06-14T15:21:26;6.40;;;2.90;;
48963;SDS011;34776;48.180;16.420;2023-06-14T15:23:52;4.97;;;2.72;;
48963;SDS011;34776;48.180;16.420;2023-06-14T15:26:18;6.18;;;3.35;;
48963;SDS011;34776;48.180;16.420;2023-06-14T15:28:44;3.10;;;2.72;;
48963;SDS011;34776;48.180;16.420;2023-06-14T15:31:09;4.57;;;2.50;;
48963;SDS011;34776;48.180;16.420;2023-06-14T15:33:35;4.47;;;2.28;;
48963;SDS011;34776;48.180;16.420;2023-06-14T15:36:00;4.68;;;2.80;;
48963;SDS011;34776;48.180;16.420;2023-06-14T15:38:26;7.32;;;2.90;;
48963;SDS011;34776;48.180;16.420;2023-06-14T15:40:51;4.97;;;2.80;;
48963;SDS011;34776;48.180;16.420;2023-06-14T15:43:16;5.93;;;2.63;;
48963;SDS011;34776;48.180;16.420;2023-06-14T15:45:42;4.90;;;2.70;;
48963;SDS011;34776;48.180;16.420;2023-06-14T15:48:08;3.30;;;2.70;;
48963;SDS011;34776;48.180;16.420;2023-06-14T15:50:34;5.63;;;2.70;;
48963;SDS011;34776;48.180;16.420;2023-06-14T15:53:01;3.67;;;2.95;;
48963;SDS011;34776;48.180;16.420;2023-06-14T15:55:26;7.88;;;3.20;;
48963;SDS011;34776;48.180;16.420;2023-06-14T15:57:52;7.10;;;2.85;;
48963;SDS011;34776;48.180;16.420;2023-06-14T16:00:17;4.50;;;2.22;;
48963;SDS011;34776;48.180;16.420;2023-06-14T16:02:43;2.88;;;2.40;;
48963;SDS011;34776;48.180;16.420;2023-06-14T16:05:09;4.13;;;2.70;;
48963;SDS011;34776;48.180;16.420;2023-06-14T16:07:34;3.15;;;2.45;;
48963;SDS011;34776;48.180;16.420;2023-06-14T16:09:59;5.53;;;2.60;;
48963;SDS011;34776;48.180;16.420;2023-06-14T16:12:25;4.05;;;2.75;;
48963;SDS011;34776;48.180;16.420;2023-06-14T16:14:50;4.45;;;2.67;;
48963;SDS011;34776;48.180;16.420;2023-06-14T16:17:16;4.40;;;2.58;;
48963;SDS011;34776;48.180;16.420;2023-06-14T16:19:42;6.80;;;3.50;;
48963;SDS011;34776;48.180;16.420;2023-06-14T16:22:07;6.80;;;4.65;;
48963;SDS011;34776;48.180;16.420;2023-06-14T16:24:33;6.78;;;5.10;;
48963;SDS011;34776;48.180;16.420;2023-06-14T16:26:58;6.57;;;3.30;;
48963;SDS011;34776;48.180;16.420;2023-06-14T16:29:23;5.75;;;3.10;;
48963;SDS011;34776;48.180;16.420;2023-06-14T16:31:49;6.57;;;3.03;;
48963;SDS011;34776;48.180;16.420;2023-06-14T16:34:14;3.85;;;2.70;;
48963;SDS011;34776;48.180;16.420;2023-06-14T16:36:40;8.30;;;3.83;;
48963;SDS011;34776;48.180;16.420;2023-06-14T16:39:06;6.05;;;3.38;;
48963;SDS011;34776;48.180;16.420;2023-06-14T16:41:32;7.85;;;3.10;;
48963;SDS011;34776;48.180;16.420;2023-06-14T16:43:57;5.65;;;3.85;;
48963;SDS011;34776;48.180;16.420;2023-06-14T16:46:29;5.50;;;3.22;;
48963;SDS011;34776;48.180;16.420;2023-06-14T16:48:59;5.80;;;3.50;;
48963;SDS011;34776;48.180;16.420;2023-06-14T16:51:25;4.78;;;3.22;;
48963;SDS011;34776;48.180;16.420;2023-06-14T16:53:51;11.85;;;3.65;;
48963;SDS011;34776;48.180;16.420;2023-06-14T16:56:17;5.13;;;3.15;;
48963;SDS011;34776;48.180;16.420;2023-06-14T16:58:44;7.22;;;3.40;;
48963;SDS011;34776;48.180;16.420;2023-06-14T17:01:10;7.30;;;3.95;;
48963;SDS011;34776;48.180;16.420;2023-06-14T17:03:35;6.82;;;3.67;;
48963;SDS011;34776;48.180;16.420;2023-06-14T17:06:01;5.93;;;3.38;;
48963;SDS011;34776;48.180;16.420;2023-06-14T17:08:26;7.95;;;4.13;;
48963;SDS011;34776;48.180;16.420;2023-06-14T17:10:54;6.30;;;3.72;;
48963;SDS011;34776;48.180;16.420;2023-06-14T17:13:22;4.55;;;3.38;;
48963;SDS011;34776;48.180;16.420;2023-06-14T17:15:47;5.93;;;3.45;;
48963;SDS011;34776;48.180;16.420;2023-06-14T17:18:12;4.50;;;3.50;;
48963;SDS011;34776;48.180;16.420;2023-06-14T17:20:38;7.50;;;4.07;;
48963;SDS011;34776;48.180;16.420;2023-06-14T17:23:03;6.15;;;3.70;;
48963;SDS011;34776;48.180;16.420;2023-06-14T17:25:28;5.00;;;3.67;;
48963;SDS011;34776;48.180;16.420;2023-06-14T17:27:54;4.82;;;3.60;;
48963;SDS011;34776;48.180;16.420;2023-06-14T17:30:20;6.68;;;3.30;;
48963;SDS011;34776;48.180;16.420;2023-06-14T17:32:45;5.90;;;3.45;;
48963;SDS011;34776;48.180;16.420;2023-06-14T17:35:11;4.55;;;3.45;;
48963;SDS011;34776;48.180;16.420;2023-06-14T17:37:39;6.95;;;4.38;;
48963;SDS011;34776;48.180;16.420;2023-06-14T17:40:05;4.53;;;3.60;;
48963;SDS011;34776;48.180;16.420;2023-06-14T17:42:31;5.97;;;3.95;;
48963;SDS011;34776;48.180;16.420;2023-06-14T17:44:56;4.70;;;3.50;;
48963;SDS011;34776;48.180;16.420;2023-06-14T17:47:22;5.70;;;3.75;;
48963;SDS011;34776;48.180;16.420;2023-06-14T17:49:47;6.15;;;3.65;;
48963;SDS011;34776;48.180;16.420;2023-06-14T17:52:16;6.55;;;3.92;;
48963;SDS011;34776;48.180;16.420;2023-06-14T17:54:41;6.10;;;3.50;;
48963;SDS011;34776;48.180;16.420;2023-06-14T17:57:07;5.18;;;3.65;;
48963;SDS011;34776;48.180;16.420;2023-06-14T17:59:32;6.30;;;3.85;;
48963;SDS011;34776;48.180;16.420;2023-06-14T18:01:57;7.68;;;3.67;;
48963;SDS011;34776;48.180;16.420;2023-06-14T18:04:24;6.68;;;4.07;;
48963;SDS011;34776;48.180;16.420;2023-06-14T18:06:49;8.98;;;6.20;;
48963;SDS011;34776;48.180;16.420;2023-06-14T18:09:14;5.38;;;4.30;;
48963;SDS011;34776;48.180;16.420;2023-06-14T18:11:40;4.55;;;4.00;;
48963;SDS011;34776;48.180;16.420;2023-06-14T18:14:05;5.93;;;4.00;;
48963;SDS011;34776;48.180;16.420;2023-06-14T18:16:31;7.80;;;4.03;;
48963;SDS011;34776;48.180;16.420;2023-06-14T18:18:56;4.07;;;3.67;;
48963;SDS011;34776;48.180;16.420;2023-06-14T18:21:21;5.90;;;3.65;;
48963;SDS011;34776;48.180;16.420;2023-06-14T18:23:47;3.90;;;3.60;;
48963;SDS011;34776;48.180;16.420;2023-06-14T18:26:18;4.78;;;3.67;;
48963;SDS011;34776;48.180;16.420;2023-06-14T18:28:45;4.35;;;3.50;;
48963;SDS011;34776;48.180;16.420;2023-06-14T18:31:10;5.88;;;3.92;;
48963;SDS011;34776;48.180;16.420;2023-06-14T18:33:35;6.40;;;4.05;;
48963;SDS011;34776;48.180;16.420;2023-06-14T18:36:01;7.03;;;4.28;;
48963;SDS011;34776;48.180;16.420;2023-06-14T18:38:26;7.68;;;3.83;;
48963;SDS011;34776;48.180;16.420;2023-06-14T18:40:51;8.88;;;4.32;;
48963;SDS011;34776;48.180;16.420;2023-06-14T18:43:17;5.18;;;4.15;;
48963;SDS011;34776;48.180;16.420;2023-06-14T18:45:43;5.72;;;4.10;;
48963;SDS011;34776;48.180;16.420;2023-06-14T18:48:08;5.13;;;4.45;;
48963;SDS011;34776;48.180;16.420;2023-06-14T18:50:34;9.13;;;8.18;;
48963;SDS011;34776;48.180;16.420;2023-06-14T18:53:00;7.38;;;6.43;;
48963;SDS011;34776;48.180;16.420;2023-06-14T18:55:25;5.35;;;4.57;;
48963;SDS011;34776;48.180;16.420;2023-06-14T18:57:51;7.30;;;4.80;;
48963;SDS011;34776;48.180;16.420;2023-06-14T19:00:16;6.28;;;4.45;;
48963;SDS011;34776;48.180;16.420;2023-06-14T19:02:42;4.57;;;4.07;;
48963;SDS011;34776;48.180;16.420;2023-06-14T19:05:07;4.35;;;3.95;;
48963;SDS011;34776;48.180;16.420;2023-06-14T19:07:33;4.65;;;4.07;;
48963;SDS011;34776;48.180;16.420;2023-06-14T19:09:58;5.63;;;3.85;;
48963;SDS011;34776;48.180;16.420;2023-06-14T19:12:23;7.28;;;3.95;;
48963;SDS011;34776;48.180;16.420;2023-06-14T19:14:49;5.50;;;3.92;;
48963;SDS011;34776;48.180;16.420;2023-06-14T19:17:14;4.07;;;3.67;;
48963;SDS011;34776;48.180;16.420;2023-06-14T19:19:40;5.95;;;3.13;;
48963;SDS011;34776;48.180;16.420;2023-06-14T19:22:05;5.78;;;3.70;;
48963;SDS011;34776;48.180;16.420;2023-06-14T19:24:31;6.03;;;4.10;;
48963;SDS011;34776;48.180;16.420;2023-06-14T19:26:56;4.70;;;3.60;;
48963;SDS011;34776;48.180;16.420;2023-06-14T19:29:22;5.07;;;4.22;;
48963;SDS011;34776;48.180;16.420;2023-06-14T19:31:47;4.57;;;3.92;;
48963;SDS011;34776;48.180;16.420;2023-06-14T19:34:12;6.50;;;4.05;;
48963;SDS011;34776;48.180;16.420;2023-06-14T19:36:38;9.07;;;3.90;;
48963;SDS011;34776;48.180;16.420;2023-06-14T19:39:03;5.93;;;4.07;;
48963;SDS011;34776;48.180;16.420;2023-06-14T19:49:10;5.15;;;3.90;;
48963;SDS011;34776;48.180;16.420;2023-06-14T19:51:36;5.95;;;3.83;;
48963;SDS011;34776;48.180;16.420;2023-06-14T19:56:36;4.55;;;3.75;;
48963;SDS011;34776;48.180;16.420;2023-06-14T20:11:52;6.03;;;4.18;;
48963;SDS011;34776;48.180;16.420;2023-06-14T20:14:18;5.82;;;4.38;;
48963;SDS011;34776;48.180;16.420;2023-06-14T20:16:43;5.75;;;4.10;;
48963;SDS011;34776;48.180;16.420;2023-06-14T20:19:08;6.07;;;5.10;;
48963;SDS011;34776;48.180;16.420;2023-06-14T20:21:34;8.25;;;5.45;;
48963;SDS011;34776;48.180;16.420;2023-06-14T20:31:47;7.28;;;4.72;;
48963;SDS011;34776;48.180;16.420;2023-06-14T20:34:13;10.55;;;5.70;;
48963;SDS011;34776;48.180;16.420;2023-06-14T20:36:39;6.80;;;5.78;;